sensor_id;sensor_type;location;lat;lon;timestamp;pressure;altitude;pressure_sealevel;temperature;humidity
64862;BME280;62652;42.274;-71.436;2022-11-15T00:00:00;102100.0;;;1.7777777777777795;57.3
64862;BME280;62652;42.274;-71.436;2022-11-15T00:01:00;102100.0;;;1.7777777777777795;57.6
64862;BME280;62652;42.274;-71.436;2022-11-15T00:02:00;102100.0;;;1.7777777777777795;58.1
64862;BME280;62652;42.274;-71.436;2022-11-15T00:03:00;102100.0;;;1.722222222222223;58.3
64862;BME280;62652;42.274;-71.436;2022-11-15T00:04:00;102110.0;;;1.6111111111111103;57.9
64862;BME280;62652;42.274;-71.436;2022-11-15T00:05:00;102100.0;;;1.5000000000000016;58.1
64862;BME280;62652;42.274;-71.436;2022-11-15T00:06:02;102100.0;;;1.3888888888888888;60.4
64862;BME280;62652;42.274;-71.436;2022-11-15T00:07:00;102110.0;;;1.3888888888888888;60.8
64862;BME280;62652;42.274;-71.436;2022-11-15T00:08:00;102110.0;;;1.3888888888888888;61.7
64862;BME280;62652;42.274;-71.436;2022-11-15T00:09:01;102110.0;;;1.2777777777777761;62.1
64862;BME280;62652;42.274;-71.436;2022-11-15T00:10:00;102110.0;;;1.2222222222222239;63.2
64862;BME280;62652;42.274;-71.436;2022-11-15T00:11:02;102110.0;;;1.2222222222222239;63.0
64862;BME280;62652;42.274;-71.436;2022-11-15T00:12:00;102110.0;;;1.2777777777777761;62.2
64862;BME280;62652;42.274;-71.436;2022-11-15T00:13:04;102100.0;;;1.2777777777777761;61.2
64862;BME280;62652;42.274;-71.436;2022-11-15T00:14:00;102110.0;;;1.3888888888888888;60.2
64862;BME280;62652;42.274;-71.436;2022-11-15T00:15:00;102110.0;;;1.3888888888888888;60.0
64862;BME280;62652;42.274;-71.436;2022-11-15T00:16:01;102110.0;;;1.5000000000000016;59.7
64862;BME280;62652;42.274;-71.436;2022-11-15T00:17:00;102120.0;;;1.5000000000000016;60.6
64862;BME280;62652;42.274;-71.436;2022-11-15T00:18:00;102120.0;;;1.5000000000000016;59.9
64862;BME280;62652;42.274;-71.436;2022-11-15T00:19:00;102120.0;;;1.2777777777777761;60.3
64862;BME280;62652;42.274;-71.436;2022-11-15T00:20:00;102120.0;;;1.2222222222222239;61.2
64862;BME280;62652;42.274;-71.436;2022-11-15T00:21:04;102120.0;;;1.1111111111111112;62.4
64862;BME280;62652;42.274;-71.436;2022-11-15T00:22:00;102130.0;;;0.9999999999999984;62.8
64862;BME280;62652;42.274;-71.436;2022-11-15T00:23:02;102130.0;;;0.9999999999999984;64.0
64862;BME280;62652;42.274;-71.436;2022-11-15T00:24:00;102130.0;;;0.8888888888888897;64.7
64862;BME280;62652;42.274;-71.436;2022-11-15T00:25:00;102130.0;;;0.777777777777777;65.9
64862;BME280;62652;42.274;-71.436;2022-11-15T00:26:00;102130.0;;;0.777777777777777;65.6
64862;BME280;62652;42.274;-71.436;2022-11-15T00:27:00;102130.0;;;0.777777777777777;66.3
64862;BME280;62652;42.274;-71.436;2022-11-15T00:28:00;102130.0;;;0.777777777777777;66.7
64862;BME280;62652;42.274;-71.436;2022-11-15T00:29:00;102130.0;;;0.8888888888888897;64.1
64862;BME280;62652;42.274;-71.436;2022-11-15T00:30:00;102130.0;;;0.9999999999999984;63.7
64862;BME280;62652;42.274;-71.436;2022-11-15T00:31:01;102130.0;;;0.9999999999999984;65.1
64862;BME280;62652;42.274;-71.436;2022-11-15T00:32:00;102130.0;;;0.9999999999999984;66.1
64862;BME280;62652;42.274;-71.436;2022-11-15T00:33:02;102130.0;;;1.1111111111111112;65.6
64862;BME280;62652;42.274;-71.436;2022-11-15T00:34:00;102140.0;;;0.9999999999999984;65.3
64862;BME280;62652;42.274;-71.436;2022-11-15T00:35:00;102140.0;;;1.1111111111111112;65.1
64862;BME280;62652;42.274;-71.436;2022-11-15T00:36:01;102140.0;;;0.9999999999999984;65.9
64862;BME280;62652;42.274;-71.436;2022-11-15T00:37:00;102140.0;;;0.777777777777777;66.2
64862;BME280;62652;42.274;-71.436;2022-11-15T00:38:01;102150.0;;;0.6111111111111119;67.0
64862;BME280;62652;42.274;-71.436;2022-11-15T00:39:02;102150.0;;;0.4999999999999992;68.4
64862;BME280;62652;42.274;-71.436;2022-11-15T00:40:00;102150.0;;;0.38888888888889045;70.6
64862;BME280;62652;42.274;-71.436;2022-11-15T00:41:01;102150.0;;;0.2777777777777778;71.3
64862;BME280;62652;42.274;-71.436;2022-11-15T00:42:00;102150.0;;;0.2777777777777778;71.9
64862;BME280;62652;42.274;-71.436;2022-11-15T00:43:00;102150.0;;;0.38888888888889045;70.9
64862;BME280;62652;42.274;-71.436;2022-11-15T00:44:00;102150.0;;;0.38888888888889045;69.8
64862;BME280;62652;42.274;-71.436;2022-11-15T00:45:00;102150.0;;;0.6111111111111119;70.9
64862;BME280;62652;42.274;-71.436;2022-11-15T00:46:00;102150.0;;;0.777777777777777;68.5
64862;BME280;62652;42.274;-71.436;2022-11-15T00:47:00;102150.0;;;0.777777777777777;68.8
64862;BME280;62652;42.274;-71.436;2022-11-15T00:48:00;102150.0;;;0.7222222222222207;70.0
64862;BME280;62652;42.274;-71.436;2022-11-15T00:49:00;102150.0;;;0.7222222222222207;70.7
64862;BME280;62652;42.274;-71.436;2022-11-15T00:50:00;102150.0;;;0.7222222222222207;69.8
64862;BME280;62652;42.274;-71.436;2022-11-15T00:51:00;102160.0;;;0.38888888888889045;70.1
64862;BME280;62652;42.274;-71.436;2022-11-15T00:52:00;102170.0;;;0.22222222222222143;71.6
64862;BME280;62652;42.274;-71.436;2022-11-15T00:53:00;102170.0;;;0.11111111111111269;72.7
64862;BME280;62652;42.274;-71.436;2022-11-15T00:54:00;102170.0;;;0.11111111111111269;72.6
64862;BME280;62652;42.274;-71.436;2022-11-15T00:55:00;102170.0;;;0.0;73.8
64862;BME280;62652;42.274;-71.436;2022-11-15T00:56:00;102180.0;;;-0.11111111111111072;75.2
64862;BME280;62652;42.274;-71.436;2022-11-15T00:57:00;102170.0;;;0.0;74.7
64862;BME280;62652;42.274;-71.436;2022-11-15T00:58:00;102170.0;;;0.11111111111111269;74.6
64862;BME280;62652;42.274;-71.436;2022-11-15T00:59:00;102170.0;;;0.2777777777777778;74.2
64862;BME280;62652;42.274;-71.436;2022-11-15T01:00:00;102170.0;;;0.38888888888889045;73.2
64862;BME280;62652;42.274;-71.436;2022-11-15T01:01:10;102170.0;;;0.38888888888889045;73.2
64862;BME280;62652;42.274;-71.436;2022-11-15T01:02:00;102170.0;;;0.2777777777777778;74.7
64862;BME280;62652;42.274;-71.436;2022-11-15T01:03:01;102180.0;;;0.11111111111111269;75.1
64862;BME280;62652;42.274;-71.436;2022-11-15T01:04:00;102180.0;;;0.11111111111111269;75.8
64862;BME280;62652;42.274;-71.436;2022-11-15T01:05:00;102180.0;;;0.11111111111111269;75.8
64862;BME280;62652;42.274;-71.436;2022-11-15T01:06:00;102180.0;;;0.22222222222222143;76.1
64862;BME280;62652;42.274;-71.436;2022-11-15T01:07:00;102190.0;;;0.0;75.6
64862;BME280;62652;42.274;-71.436;2022-11-15T01:08:00;102190.0;;;-0.11111111111111072;76.1
64862;BME280;62652;42.274;-71.436;2022-11-15T01:09:00;102190.0;;;-0.2777777777777778;76.7
64862;BME280;62652;42.274;-71.436;2022-11-15T01:10:00;102190.0;;;-0.2777777777777778;77.6
64862;BME280;62652;42.274;-71.436;2022-11-15T01:11:01;102190.0;;;-0.3888888888888885;78.8
64862;BME280;62652;42.274;-71.436;2022-11-15T01:12:00;102190.0;;;-0.3888888888888885;79.1
64862;BME280;62652;42.274;-71.436;2022-11-15T01:13:00;102190.0;;;-0.2777777777777778;81.0
64862;BME280;62652;42.274;-71.436;2022-11-15T01:14:00;102190.0;;;-0.2777777777777778;80.0
64862;BME280;62652;42.274;-71.436;2022-11-15T01:15:00;102190.0;;;-0.3888888888888885;79.9
64862;BME280;62652;42.274;-71.436;2022-11-15T01:16:06;102190.0;;;-0.11111111111111072;77.9
64862;BME280;62652;42.274;-71.436;2022-11-15T01:17:00;102190.0;;;0.0;76.4
64862;BME280;62652;42.274;-71.436;2022-11-15T01:18:00;102200.0;;;0.11111111111111269;76.8
64862;BME280;62652;42.274;-71.436;2022-11-15T01:19:00;102200.0;;;0.11111111111111269;76.9
64862;BME280;62652;42.274;-71.436;2022-11-15T01:20:00;102200.0;;;0.0;77.0
64862;BME280;62652;42.274;-71.436;2022-11-15T01:21:05;102200.0;;;0.11111111111111269;76.7
64862;BME280;62652;42.274;-71.436;2022-11-15T01:22:00;102200.0;;;0.0;79.1
64862;BME280;62652;42.274;-71.436;2022-11-15T01:23:00;102210.0;;;-0.22222222222222143;80.5
64862;BME280;62652;42.274;-71.436;2022-11-15T01:24:00;102210.0;;;-0.22222222222222143;81.3
64862;BME280;62652;42.274;-71.436;2022-11-15T01:25:00;102210.0;;;-0.2777777777777778;81.7
64862;BME280;62652;42.274;-71.436;2022-11-15T01:26:01;102210.0;;;-0.2777777777777778;81.5
64862;BME280;62652;42.274;-71.436;2022-11-15T01:27:00;102210.0;;;-0.2777777777777778;80.1
64862;BME280;62652;42.274;-71.436;2022-11-15T01:28:01;102210.0;;;-0.22222222222222143;81.1
64862;BME280;62652;42.274;-71.436;2022-11-15T01:29:00;102210.0;;;-0.11111111111111072;80.7
64862;BME280;62652;42.274;-71.436;2022-11-15T01:30:00;102210.0;;;-0.22222222222222143;82.5
64862;BME280;62652;42.274;-71.436;2022-11-15T01:31:02;102210.0;;;-0.22222222222222143;83.3
64862;BME280;62652;42.274;-71.436;2022-11-15T01:32:00;102210.0;;;-0.2777777777777778;85.2
64862;BME280;62652;42.274;-71.436;2022-11-15T01:33:00;102210.0;;;-0.2777777777777778;86.1
64862;BME280;62652;42.274;-71.436;2022-11-15T01:34:00;102210.0;;;-0.2777777777777778;86.4
64862;BME280;62652;42.274;-71.436;2022-11-15T01:35:00;102210.0;;;-0.3888888888888885;86.9
64862;BME280;62652;42.274;-71.436;2022-11-15T01:36:03;102220.0;;;-0.3888888888888885;86.3
64862;BME280;62652;42.274;-71.436;2022-11-15T01:37:00;102220.0;;;-0.2777777777777778;86.4
64862;BME280;62652;42.274;-71.436;2022-11-15T01:38:00;102220.0;;;-0.2777777777777778;85.0
64862;BME280;62652;42.274;-71.436;2022-11-15T01:39:01;102220.0;;;-0.2777777777777778;85.1
64862;BME280;62652;42.274;-71.436;2022-11-15T01:40:00;102210.0;;;-0.22222222222222143;85.1
64862;BME280;62652;42.274;-71.436;2022-11-15T01:41:00;102210.0;;;-0.22222222222222143;85.8
64862;BME280;62652;42.274;-71.436;2022-11-15T01:42:00;102210.0;;;-0.11111111111111072;85.8
64862;BME280;62652;42.274;-71.436;2022-11-15T01:43:18;102210.0;;;-0.22222222222222143;87.2
64862;BME280;62652;42.274;-71.436;2022-11-15T01:45:00;102210.0;;;-0.22222222222222143;86.9
64862;BME280;62652;42.274;-71.436;2022-11-15T01:46:06;102220.0;;;-0.2777777777777778;88.3
64862;BME280;62652;42.274;-71.436;2022-11-15T01:47:02;102220.0;;;-0.2777777777777778;88.9
64862;BME280;62652;42.274;-71.436;2022-11-15T01:48:00;102220.0;;;-0.3888888888888885;87.9
64862;BME280;62652;42.274;-71.436;2022-11-15T01:49:05;102220.0;;;-0.4999999999999992;87.8
64862;BME280;62652;42.274;-71.436;2022-11-15T01:50:04;102220.0;;;-0.3888888888888885;87.7
64862;BME280;62652;42.274;-71.436;2022-11-15T01:51:02;102220.0;;;-0.3888888888888885;86.5
64862;BME280;62652;42.274;-71.436;2022-11-15T01:52:02;102220.0;;;-0.22222222222222143;85.9
64862;BME280;62652;42.274;-71.436;2022-11-15T01:53:00;102220.0;;;-0.22222222222222143;86.1
64862;BME280;62652;42.274;-71.436;2022-11-15T01:54:03;102220.0;;;-0.22222222222222143;85.8
64862;BME280;62652;42.274;-71.436;2022-11-15T01:55:04;102220.0;;;-0.11111111111111072;85.1
64862;BME280;62652;42.274;-71.436;2022-11-15T01:56:02;102220.0;;;-0.11111111111111072;85.5
64862;BME280;62652;42.274;-71.436;2022-11-15T01:57:03;102230.0;;;-0.11111111111111072;86.1
64862;BME280;62652;42.274;-71.436;2022-11-15T01:58:02;102230.0;;;-0.22222222222222143;86.9
64862;BME280;62652;42.274;-71.436;2022-11-15T01:59:05;102230.0;;;-0.2777777777777778;87.8
64862;BME280;62652;42.274;-71.436;2022-11-15T02:00:02;102230.0;;;-0.2777777777777778;87.3
64862;BME280;62652;42.274;-71.436;2022-11-15T02:01:00;102230.0;;;-0.3888888888888885;86.6
64862;BME280;62652;42.274;-71.436;2022-11-15T02:02:00;102240.0;;;-0.2777777777777778;86.3
64862;BME280;62652;42.274;-71.436;2022-11-15T02:03:01;102240.0;;;-0.6111111111111119;87.1
64862;BME280;62652;42.274;-71.436;2022-11-15T02:04:04;102250.0;;;-0.7222222222222227;86.8
64862;BME280;62652;42.274;-71.436;2022-11-15T02:05:00;102250.0;;;-0.7222222222222227;87.7
64862;BME280;62652;42.274;-71.436;2022-11-15T02:06:01;102250.0;;;-0.6111111111111119;88.6
64862;BME280;62652;42.274;-71.436;2022-11-15T02:07:01;102250.0;;;-0.7222222222222227;89.1
64862;BME280;62652;42.274;-71.436;2022-11-15T02:08:00;102250.0;;;-0.777777777777777;89.6
64862;BME280;62652;42.274;-71.436;2022-11-15T02:09:00;102250.0;;;-0.6111111111111119;89.2
64862;BME280;62652;42.274;-71.436;2022-11-15T02:10:04;102250.0;;;-0.4999999999999992;87.7
64862;BME280;62652;42.274;-71.436;2022-11-15T02:11:00;102250.0;;;-0.4999999999999992;87.3
64862;BME280;62652;42.274;-71.436;2022-11-15T02:12:01;102260.0;;;-0.4999999999999992;87.5
64862;BME280;62652;42.274;-71.436;2022-11-15T02:13:01;102260.0;;;-0.6111111111111119;86.4
64862;BME280;62652;42.274;-71.436;2022-11-15T02:14:01;102260.0;;;-0.7222222222222227;87.8
64862;BME280;62652;42.274;-71.436;2022-11-15T02:15:01;102270.0;;;-0.6111111111111119;88.5
64862;BME280;62652;42.274;-71.436;2022-11-15T02:16:12;102270.0;;;-0.4999999999999992;88.4
64862;BME280;62652;42.274;-71.436;2022-11-15T02:17:07;102270.0;;;-0.3888888888888885;88.0
64862;BME280;62652;42.274;-71.436;2022-11-15T02:18:09;102270.0;;;-0.4999999999999992;88.2
64862;BME280;62652;42.274;-71.436;2022-11-15T02:19:21;102260.0;;;-0.3888888888888885;87.7
64862;BME280;62652;42.274;-71.436;2022-11-15T02:21:11;102270.0;;;-0.3888888888888885;88.9
64862;BME280;62652;42.274;-71.436;2022-11-15T02:22:10;102270.0;;;-0.4999999999999992;89.7
64862;BME280;62652;42.274;-71.436;2022-11-15T02:23:15;102270.0;;;-0.3888888888888885;89.7
64862;BME280;62652;42.274;-71.436;2022-11-15T02:25:07;102280.0;;;-0.3888888888888885;87.1
64862;BME280;62652;42.274;-71.436;2022-11-15T02:26:16;102280.0;;;-0.6111111111111119;88.2
64862;BME280;62652;42.274;-71.436;2022-11-15T02:27:18;102280.0;;;-0.7222222222222227;90.1
64862;BME280;62652;42.274;-71.436;2022-11-15T02:29:05;102290.0;;;-1.0000000000000004;92.9
64862;BME280;62652;42.274;-71.436;2022-11-15T02:30:16;102290.0;;;-1.1111111111111112;93.6
64862;BME280;62652;42.274;-71.436;2022-11-15T02:31:04;102290.0;;;-1.0000000000000004;94.6
64862;BME280;62652;42.274;-71.436;2022-11-15T02:32:05;102290.0;;;-1.0000000000000004;93.7
64862;BME280;62652;42.274;-71.436;2022-11-15T02:33:07;102290.0;;;-1.0000000000000004;92.9
64862;BME280;62652;42.274;-71.436;2022-11-15T02:34:06;102290.0;;;-0.8888888888888897;93.5
64862;BME280;62652;42.274;-71.436;2022-11-15T02:35:06;102290.0;;;-0.8888888888888897;93.4
64862;BME280;62652;42.274;-71.436;2022-11-15T02:36:02;102290.0;;;-1.0000000000000004;91.1
64862;BME280;62652;42.274;-71.436;2022-11-15T02:37:06;102290.0;;;-1.0000000000000004;90.6
64862;BME280;62652;42.274;-71.436;2022-11-15T02:38:07;102290.0;;;-1.1111111111111112;91.2
64862;BME280;62652;42.274;-71.436;2022-11-15T02:39:06;102290.0;;;-1.1111111111111112;91.5
64862;BME280;62652;42.274;-71.436;2022-11-15T02:40:06;102300.0;;;-1.1111111111111112;92.6
64862;BME280;62652;42.274;-71.436;2022-11-15T02:41:04;102300.0;;;-1.1111111111111112;93.0
64862;BME280;62652;42.274;-71.436;2022-11-15T02:42:04;102290.0;;;-1.1111111111111112;93.5
64862;BME280;62652;42.274;-71.436;2022-11-15T02:43:07;102290.0;;;-1.1111111111111112;93.4
64862;BME280;62652;42.274;-71.436;2022-11-15T02:44:03;102290.0;;;-1.2222222222222219;93.0
64862;BME280;62652;42.274;-71.436;2022-11-15T02:45:04;102300.0;;;-1.2222222222222219;93.4
64862;BME280;62652;42.274;-71.436;2022-11-15T02:46:06;102300.0;;;-1.1111111111111112;93.2
64862;BME280;62652;42.274;-71.436;2022-11-15T02:47:04;102300.0;;;-1.0000000000000004;92.8
64862;BME280;62652;42.274;-71.436;2022-11-15T02:48:01;102300.0;;;-1.1111111111111112;93.9
64862;BME280;62652;42.274;-71.436;2022-11-15T02:49:00;102300.0;;;-1.0000000000000004;94.4
64862;BME280;62652;42.274;-71.436;2022-11-15T02:50:03;102300.0;;;-0.777777777777777;93.6
64862;BME280;62652;42.274;-71.436;2022-11-15T02:51:01;102300.0;;;-0.7222222222222227;92.3
64862;BME280;62652;42.274;-71.436;2022-11-15T02:52:01;102310.0;;;-1.1111111111111112;92.7
64862;BME280;62652;42.274;-71.436;2022-11-15T02:53:01;102310.0;;;-1.2222222222222219;93.8
64862;BME280;62652;42.274;-71.436;2022-11-15T02:54:00;102310.0;;;-1.1111111111111112;93.7
64862;BME280;62652;42.274;-71.436;2022-11-15T02:55:01;102310.0;;;-1.1111111111111112;93.7
64862;BME280;62652;42.274;-71.436;2022-11-15T02:56:01;102300.0;;;-1.2222222222222219;93.7
64862;BME280;62652;42.274;-71.436;2022-11-15T02:57:04;102310.0;;;-1.2222222222222219;94.3
64862;BME280;62652;42.274;-71.436;2022-11-15T02:58:16;102300.0;;;-1.2777777777777781;94.5
64862;BME280;62652;42.274;-71.436;2022-11-15T02:59:16;102310.0;;;-1.2222222222222219;93.5
64862;BME280;62652;42.274;-71.436;2022-11-15T03:00:05;102310.0;;;-1.1111111111111112;92.0
64862;BME280;62652;42.274;-71.436;2022-11-15T03:01:04;102310.0;;;-1.0000000000000004;91.3
64862;BME280;62652;42.274;-71.436;2022-11-15T03:02:10;102310.0;;;-1.1111111111111112;92.0
64862;BME280;62652;42.274;-71.436;2022-11-15T03:03:09;102310.0;;;-0.8888888888888897;92.6
64862;BME280;62652;42.274;-71.436;2022-11-15T03:04:08;102310.0;;;-0.8888888888888897;92.3
64862;BME280;62652;42.274;-71.436;2022-11-15T03:05:07;102310.0;;;-1.0000000000000004;92.7
64862;BME280;62652;42.274;-71.436;2022-11-15T03:06:09;102310.0;;;-1.1111111111111112;92.5
64862;BME280;62652;42.274;-71.436;2022-11-15T03:07:06;102320.0;;;-1.0000000000000004;91.9
64862;BME280;62652;42.274;-71.436;2022-11-15T03:08:06;102310.0;;;-1.0000000000000004;91.6
64862;BME280;62652;42.274;-71.436;2022-11-15T03:09:05;102320.0;;;-0.8888888888888897;91.2
64862;BME280;62652;42.274;-71.436;2022-11-15T03:10:06;102320.0;;;-0.777777777777777;90.6
64862;BME280;62652;42.274;-71.436;2022-11-15T03:11:07;102310.0;;;-0.7222222222222227;88.5
64862;BME280;62652;42.274;-71.436;2022-11-15T03:12:06;102310.0;;;-0.7222222222222227;87.9
64862;BME280;62652;42.274;-71.436;2022-11-15T03:13:07;102310.0;;;-0.777777777777777;88.8
64862;BME280;62652;42.274;-71.436;2022-11-15T03:14:04;102310.0;;;-0.7222222222222227;89.2
64862;BME280;62652;42.274;-71.436;2022-11-15T03:15:05;102310.0;;;-0.777777777777777;90.1
64862;BME280;62652;42.274;-71.436;2022-11-15T03:16:03;102310.0;;;-0.777777777777777;90.0
64862;BME280;62652;42.274;-71.436;2022-11-15T03:17:05;102310.0;;;-0.7222222222222227;89.5
64862;BME280;62652;42.274;-71.436;2022-11-15T03:18:04;102310.0;;;-0.777777777777777;89.0
64862;BME280;62652;42.274;-71.436;2022-11-15T03:19:14;102310.0;;;-0.8888888888888897;90.3
64862;BME280;62652;42.274;-71.436;2022-11-15T03:20:04;102320.0;;;-1.0000000000000004;90.4
64862;BME280;62652;42.274;-71.436;2022-11-15T03:21:04;102320.0;;;-0.8888888888888897;90.4
64862;BME280;62652;42.274;-71.436;2022-11-15T03:22:03;102320.0;;;-0.777777777777777;89.7
64862;BME280;62652;42.274;-71.436;2022-11-15T03:23:04;102330.0;;;-0.8888888888888897;90.5
64862;BME280;62652;42.274;-71.436;2022-11-15T03:24:03;102330.0;;;-1.0000000000000004;90.9
64862;BME280;62652;42.274;-71.436;2022-11-15T03:25:04;102330.0;;;-1.0000000000000004;91.8
64862;BME280;62652;42.274;-71.436;2022-11-15T03:26:00;102330.0;;;-1.0000000000000004;91.8
64862;BME280;62652;42.274;-71.436;2022-11-15T03:27:02;102330.0;;;-1.0000000000000004;91.5
64862;BME280;62652;42.274;-71.436;2022-11-15T03:28:04;102330.0;;;-1.1111111111111112;92.0
64862;BME280;62652;42.274;-71.436;2022-11-15T03:29:04;102330.0;;;-1.1111111111111112;92.3
64862;BME280;62652;42.274;-71.436;2022-11-15T03:30:02;102330.0;;;-1.0000000000000004;93.3
64862;BME280;62652;42.274;-71.436;2022-11-15T03:31:02;102330.0;;;-1.1111111111111112;93.3
64862;BME280;62652;42.274;-71.436;2022-11-15T03:32:05;102330.0;;;-1.2222222222222219;93.8
64862;BME280;62652;42.274;-71.436;2022-11-15T03:33:01;102320.0;;;-1.3888888888888888;93.9
64862;BME280;62652;42.274;-71.436;2022-11-15T03:34:02;102320.0;;;-1.3888888888888888;94.8
64862;BME280;62652;42.274;-71.436;2022-11-15T03:35:04;102310.0;;;-1.3888888888888888;95.4
64862;BME280;62652;42.274;-71.436;2022-11-15T03:36:00;102310.0;;;-1.3888888888888888;96.0
64862;BME280;62652;42.274;-71.436;2022-11-15T03:37:01;102310.0;;;-1.3888888888888888;96.1
64862;BME280;62652;42.274;-71.436;2022-11-15T03:38:08;102310.0;;;-1.4999999999999996;96.3
64862;BME280;62652;42.274;-71.436;2022-11-15T03:39:05;102300.0;;;-1.6111111111111103;97.1
64862;BME280;62652;42.274;-71.436;2022-11-15T03:40:01;102310.0;;;-1.6111111111111103;97.4
64862;BME280;62652;42.274;-71.436;2022-11-15T03:41:03;102310.0;;;-1.6111111111111103;98.1
64862;BME280;62652;42.274;-71.436;2022-11-15T03:42:07;102310.0;;;-1.6111111111111103;98.5
64862;BME280;62652;42.274;-71.436;2022-11-15T03:43:06;102310.0;;;-1.4999999999999996;99.0
64862;BME280;62652;42.274;-71.436;2022-11-15T03:44:07;102310.0;;;-1.3888888888888888;98.3
64862;BME280;62652;42.274;-71.436;2022-11-15T03:45:08;102310.0;;;-1.3888888888888888;98.0
64862;BME280;62652;42.274;-71.436;2022-11-15T03:46:04;102310.0;;;-1.2777777777777781;98.0
64862;BME280;62652;42.274;-71.436;2022-11-15T03:47:04;102310.0;;;-1.2777777777777781;98.2
64862;BME280;62652;42.274;-71.436;2022-11-15T03:48:05;102310.0;;;-1.2222222222222219;97.3
64862;BME280;62652;42.274;-71.436;2022-11-15T03:49:09;102310.0;;;-1.2222222222222219;97.3
64862;BME280;62652;42.274;-71.436;2022-11-15T03:50:04;102310.0;;;-1.2222222222222219;97.0
64862;BME280;62652;42.274;-71.436;2022-11-15T03:51:01;102300.0;;;-1.2222222222222219;97.5
64862;BME280;62652;42.274;-71.436;2022-11-15T03:52:02;102300.0;;;-1.2222222222222219;97.1
64862;BME280;62652;42.274;-71.436;2022-11-15T03:53:00;102300.0;;;-1.1111111111111112;96.9
64862;BME280;62652;42.274;-71.436;2022-11-15T03:54:02;102300.0;;;-1.1111111111111112;95.9
64862;BME280;62652;42.274;-71.436;2022-11-15T03:55:02;102300.0;;;-1.1111111111111112;95.0
64862;BME280;62652;42.274;-71.436;2022-11-15T03:56:00;102310.0;;;-1.2777777777777781;95.9
64862;BME280;62652;42.274;-71.436;2022-11-15T03:57:00;102310.0;;;-1.3888888888888888;96.6
64862;BME280;62652;42.274;-71.436;2022-11-15T03:58:01;102310.0;;;-1.4999999999999996;97.9
64862;BME280;62652;42.274;-71.436;2022-11-15T03:59:00;102320.0;;;-1.6111111111111103;98.0
64862;BME280;62652;42.274;-71.436;2022-11-15T04:00:00;102320.0;;;-1.6111111111111103;98.2
64862;BME280;62652;42.274;-71.436;2022-11-15T04:01:00;102320.0;;;-1.4999999999999996;98.9
64862;BME280;62652;42.274;-71.436;2022-11-15T04:02:00;102310.0;;;-1.6111111111111103;99.2
64862;BME280;62652;42.274;-71.436;2022-11-15T04:03:00;102310.0;;;-1.722222222222223;99.1
64862;BME280;62652;42.274;-71.436;2022-11-15T04:04:00;102310.0;;;-1.722222222222223;99.1
64862;BME280;62652;42.274;-71.436;2022-11-15T04:05:00;102310.0;;;-1.722222222222223;99.1
64862;BME280;62652;42.274;-71.436;2022-11-15T04:06:00;102300.0;;;-1.4999999999999996;99.3
64862;BME280;62652;42.274;-71.436;2022-11-15T04:07:00;102300.0;;;-1.3888888888888888;99.1
64862;BME280;62652;42.274;-71.436;2022-11-15T04:08:00;102300.0;;;-1.3888888888888888;98.3
64862;BME280;62652;42.274;-71.436;2022-11-15T04:09:00;102290.0;;;-1.3888888888888888;98.3
64862;BME280;62652;42.274;-71.436;2022-11-15T04:10:00;102300.0;;;-1.4999999999999996;99.0
64862;BME280;62652;42.274;-71.436;2022-11-15T04:11:00;102290.0;;;-1.6111111111111103;99.6
64862;BME280;62652;42.274;-71.436;2022-11-15T04:12:00;102300.0;;;-1.2777777777777781;98.8
64862;BME280;62652;42.274;-71.436;2022-11-15T04:13:02;102300.0;;;-1.2777777777777781;98.3
64862;BME280;62652;42.274;-71.436;2022-11-15T04:14:00;102290.0;;;-1.2777777777777781;98.6
64862;BME280;62652;42.274;-71.436;2022-11-15T04:15:03;102290.0;;;-1.2222222222222219;98.5
64862;BME280;62652;42.274;-71.436;2022-11-15T04:16:00;102290.0;;;-1.2222222222222219;98.4
64862;BME280;62652;42.274;-71.436;2022-11-15T04:17:00;102300.0;;;-1.2777777777777781;98.5
64862;BME280;62652;42.274;-71.436;2022-11-15T04:18:00;102300.0;;;-1.6111111111111103;99.7
64862;BME280;62652;42.274;-71.436;2022-11-15T04:19:00;102300.0;;;-1.722222222222223;100.0
64862;BME280;62652;42.274;-71.436;2022-11-15T04:20:00;102300.0;;;-1.6111111111111103;100.0
64862;BME280;62652;42.274;-71.436;2022-11-15T04:21:00;102300.0;;;-1.6111111111111103;100.0
64862;BME280;62652;42.274;-71.436;2022-11-15T04:22:00;102290.0;;;-1.6111111111111103;100.0
64862;BME280;62652;42.274;-71.436;2022-11-15T04:23:02;102290.0;;;-1.6111111111111103;100.0
64862;BME280;62652;42.274;-71.436;2022-11-15T04:24:00;102290.0;;;-1.6111111111111103;100.0
64862;BME280;62652;42.274;-71.436;2022-11-15T04:25:00;102290.0;;;-1.7777777777777775;100.0
64862;BME280;62652;42.274;-71.436;2022-11-15T04:26:02;102290.0;;;-1.8888888888888882;100.0
64862;BME280;62652;42.274;-71.436;2022-11-15T04:27:00;102290.0;;;-2.000000000000001;100.0
64862;BME280;62652;42.274;-71.436;2022-11-15T04:28:00;102290.0;;;-2.1111111111111116;100.0
64862;BME280;62652;42.274;-71.436;2022-11-15T04:29:00;102290.0;;;-2.2222222222222223;100.0